sensor_id;sensor_type;location;lat;lon;timestamp;P1;durP1;ratioP1;P2;durP2;ratioP2
19406;SDS011;9839;53.364;-1.204;2023-10-19T00:01:55;5.03;;;2.40;;
19406;SDS011;9839;53.364;-1.204;2023-10-19T00:04:24;10.30;;;2.23;;
19406;SDS011;9839;53.364;-1.204;2023-10-19T00:06:50;9.38;;;2.72;;
19406;SDS011;9839;53.364;-1.204;2023-10-19T00:09:15;4.28;;;1.60;;
19406;SDS011;9839;53.364;-1.204;2023-10-19T00:11:41;4.57;;;1.50;;
19406;SDS011;9839;53.364;-1.204;2023-10-19T00:14:07;3.25;;;1.38;;
19406;SDS011;9839;53.364;-1.204;2023-10-19T00:16:46;8.07;;;1.60;;
19406;SDS011;9839;53.364;-1.204;2023-10-19T00:19:31;5.97;;;1.52;;
19406;SDS011;9839;53.364;-1.204;2023-10-19T00:22:04;2.55;;;1.40;;
19406;SDS011;9839;53.364;-1.204;2023-10-19T00:24:34;3.60;;;1.30;;
19406;SDS011;9839;53.364;-1.204;2023-10-19T00:27:00;5.47;;;1.48;;
19406;SDS011;9839;53.364;-1.204;2023-10-19T00:29:31;4.20;;;1.45;;
19406;SDS011;9839;53.364;-1.204;2023-10-19T00:31:58;2.50;;;1.23;;
19406;SDS011;9839;53.364;-1.204;2023-10-19T00:34:25;2.13;;;1.23;;
19406;SDS011;9839;53.364;-1.204;2023-10-19T00:36:54;2.83;;;1.10;;
19406;SDS011;9839;53.364;-1.204;2023-10-19T00:39:21;1.70;;;1.20;;
19406;SDS011;9839;53.364;-1.204;2023-10-19T00:41:48;3.10;;;1.30;;
19406;SDS011;9839;53.364;-1.204;2023-10-19T00:44:14;3.78;;;1.38;;
19406;SDS011;9839;53.364;-1.204;2023-10-19T00:47:02;2.15;;;1.10;;
19406;SDS011;9839;53.364;-1.204;2023-10-19T00:49:37;2.08;;;1.08;;
19406;SDS011;9839;53.364;-1.204;2023-10-19T00:52:03;1.40;;;0.85;;
19406;SDS011;9839;53.364;-1.204;2023-10-19T00:54:38;2.33;;;1.17;;
19406;SDS011;9839;53.364;-1.204;2023-10-19T00:57:16;3.10;;;1.05;;
19406;SDS011;9839;53.364;-1.204;2023-10-19T00:59:45;4.00;;;1.05;;
19406;SDS011;9839;53.364;-1.204;2023-10-19T01:02:25;4.18;;;1.20;;
19406;SDS011;9839;53.364;-1.204;2023-10-19T01:04:52;1.02;;;0.90;;
19406;SDS011;9839;53.364;-1.204;2023-10-19T01:07:24;1.67;;;0.82;;
19406;SDS011;9839;53.364;-1.204;2023-10-19T01:10:10;1.10;;;0.90;;
19406;SDS011;9839;53.364;-1.204;2023-10-19T01:12:37;1.95;;;1.10;;
19406;SDS011;9839;53.364;-1.204;2023-10-19T01:17:36;2.58;;;1.30;;
19406;SDS011;9839;53.364;-1.204;2023-10-19T01:20:15;1.83;;;1.67;;
19406;SDS011;9839;53.364;-1.204;2023-10-19T01:22:48;1.55;;;1.30;;
19406;SDS011;9839;53.364;-1.204;2023-10-19T01:25:48;1.08;;;1.00;;
19406;SDS011;9839;53.364;-1.204;2023-10-19T01:28:20;3.72;;;1.25;;
19406;SDS011;9839;53.364;-1.204;2023-10-19T01:31:04;1.27;;;1.17;;
19406;SDS011;9839;53.364;-1.204;2023-10-19T01:33:31;2.08;;;1.42;;
19406;SDS011;9839;53.364;-1.204;2023-10-19T01:35:57;2.22;;;1.40;;
19406;SDS011;9839;53.364;-1.204;2023-10-19T01:38:57;2.92;;;1.65;;
19406;SDS011;9839;53.364;-1.204;2023-10-19T01:41:26;2.47;;;1.50;;
19406;SDS011;9839;53.364;-1.204;2023-10-19T01:43:52;3.83;;;1.73;;
19406;SDS011;9839;53.364;-1.204;2023-10-19T01:46:19;3.67;;;1.95;;
19406;SDS011;9839;53.364;-1.204;2023-10-19T01:48:50;4.47;;;2.00;;
19406;SDS011;9839;53.364;-1.204;2023-10-19T01:51:21;3.38;;;1.92;;
19406;SDS011;9839;53.364;-1.204;2023-10-19T01:53:48;5.57;;;2.65;;
19406;SDS011;9839;53.364;-1.204;2023-10-19T01:56:15;5.35;;;2.45;;
19406;SDS011;9839;53.364;-1.204;2023-10-19T01:58:42;5.95;;;2.63;;
19406;SDS011;9839;53.364;-1.204;2023-10-19T02:01:11;3.85;;;3.13;;
19406;SDS011;9839;53.364;-1.204;2023-10-19T02:03:37;2.83;;;2.33;;
19406;SDS011;9839;53.364;-1.204;2023-10-19T02:06:07;4.30;;;2.90;;
19406;SDS011;9839;53.364;-1.204;2023-10-19T02:08:49;2.92;;;2.50;;
19406;SDS011;9839;53.364;-1.204;2023-10-19T02:11:23;3.50;;;2.40;;
19406;SDS011;9839;53.364;-1.204;2023-10-19T02:13:49;4.38;;;2.67;;
19406;SDS011;9839;53.364;-1.204;2023-10-19T02:16:16;3.63;;;2.78;;
19406;SDS011;9839;53.364;-1.204;2023-10-19T02:18:45;3.67;;;2.13;;
19406;SDS011;9839;53.364;-1.204;2023-10-19T02:21:10;6.53;;;3.25;;
19406;SDS011;9839;53.364;-1.204;2023-10-19T02:23:40;6.25;;;2.75;;
19406;SDS011;9839;53.364;-1.204;2023-10-19T02:26:08;6.25;;;3.30;;
19406;SDS011;9839;53.364;-1.204;2023-10-19T02:28:37;4.80;;;2.72;;
19406;SDS011;9839;53.364;-1.204;2023-10-19T02:31:04;4.75;;;2.60;;
19406;SDS011;9839;53.364;-1.204;2023-10-19T02:33:50;5.90;;;2.75;;
19406;SDS011;9839;53.364;-1.204;2023-10-19T02:36:26;3.05;;;1.80;;
19406;SDS011;9839;53.364;-1.204;2023-10-19T02:38:57;2.40;;;1.55;;
19406;SDS011;9839;53.364;-1.204;2023-10-19T02:41:32;2.15;;;1.77;;
19406;SDS011;9839;53.364;-1.204;2023-10-19T02:44:00;3.20;;;1.80;;
19406;SDS011;9839;53.364;-1.204;2023-10-19T02:46:30;3.67;;;2.08;;
19406;SDS011;9839;53.364;-1.204;2023-10-19T02:49:00;4.53;;;2.38;;
19406;SDS011;9839;53.364;-1.204;2023-10-19T02:51:32;4.63;;;2.92;;
19406;SDS011;9839;53.364;-1.204;2023-10-19T02:53:57;6.85;;;2.88;;
19406;SDS011;9839;53.364;-1.204;2023-10-19T02:56:27;7.43;;;3.22;;
19406;SDS011;9839;53.364;-1.204;2023-10-19T02:58:55;4.00;;;2.40;;
19406;SDS011;9839;53.364;-1.204;2023-10-19T03:01:27;5.20;;;3.00;;
19406;SDS011;9839;53.364;-1.204;2023-10-19T03:03:56;5.45;;;3.10;;
19406;SDS011;9839;53.364;-1.204;2023-10-19T03:06:25;4.30;;;2.72;;
19406;SDS011;9839;53.364;-1.204;2023-10-19T03:08:56;7.60;;;3.25;;
19406;SDS011;9839;53.364;-1.204;2023-10-19T03:11:30;4.80;;;2.60;;
19406;SDS011;9839;53.364;-1.204;2023-10-19T03:13:59;3.85;;;2.58;;
19406;SDS011;9839;53.364;-1.204;2023-10-19T03:16:26;3.88;;;2.65;;
19406;SDS011;9839;53.364;-1.204;2023-10-19T03:18:56;3.40;;;2.67;;
19406;SDS011;9839;53.364;-1.204;2023-10-19T03:21:22;3.83;;;2.65;;
19406;SDS011;9839;53.364;-1.204;2023-10-19T03:23:57;4.93;;;2.63;;
19406;SDS011;9839;53.364;-1.204;2023-10-19T03:26:27;5.95;;;3.40;;
19406;SDS011;9839;53.364;-1.204;2023-10-19T03:29:02;6.40;;;3.40;;
19406;SDS011;9839;53.364;-1.204;2023-10-19T03:31:32;4.78;;;3.50;;
19406;SDS011;9839;53.364;-1.204;2023-10-19T03:33:58;5.63;;;4.00;;
19406;SDS011;9839;53.364;-1.204;2023-10-19T03:36:24;6.60;;;4.13;;
19406;SDS011;9839;53.364;-1.204;2023-10-19T03:38:51;8.80;;;4.97;;
19406;SDS011;9839;53.364;-1.204;2023-10-19T03:41:19;5.75;;;4.25;;
19406;SDS011;9839;53.364;-1.204;2023-10-19T03:43:53;5.93;;;4.25;;
19406;SDS011;9839;53.364;-1.204;2023-10-19T03:46:19;7.50;;;5.00;;
19406;SDS011;9839;53.364;-1.204;2023-10-19T03:48:54;8.43;;;5.20;;
19406;SDS011;9839;53.364;-1.204;2023-10-19T03:51:24;8.25;;;5.35;;
19406;SDS011;9839;53.364;-1.204;2023-10-19T03:53:51;8.13;;;5.65;;
19406;SDS011;9839;53.364;-1.204;2023-10-19T03:56:24;9.75;;;6.18;;
19406;SDS011;9839;53.364;-1.204;2023-10-19T03:58:49;9.95;;;6.15;;
19406;SDS011;9839;53.364;-1.204;2023-10-19T04:01:16;8.90;;;5.78;;
19406;SDS011;9839;53.364;-1.204;2023-10-19T04:03:44;9.55;;;6.07;;
19406;SDS011;9839;53.364;-1.204;2023-10-19T04:06:10;10.63;;;6.72;;
19406;SDS011;9839;53.364;-1.204;2023-10-19T04:08:39;10.40;;;5.75;;
19406;SDS011;9839;53.364;-1.204;2023-10-19T04:11:05;12.63;;;6.05;;
19406;SDS011;9839;53.364;-1.204;2023-10-19T04:13:37;10.30;;;5.75;;
19406;SDS011;9839;53.364;-1.204;2023-10-19T04:16:03;10.43;;;5.30;;
19406;SDS011;9839;53.364;-1.204;2023-10-19T04:18:29;9.52;;;5.90;;
19406;SDS011;9839;53.364;-1.204;2023-10-19T04:20:55;10.73;;;6.13;;
19406;SDS011;9839;53.364;-1.204;2023-10-19T04:23:22;7.75;;;5.45;;
19406;SDS011;9839;53.364;-1.204;2023-10-19T04:25:52;8.70;;;5.90;;
19406;SDS011;9839;53.364;-1.204;2023-10-19T04:28:21;13.23;;;6.18;;
19406;SDS011;9839;53.364;-1.204;2023-10-19T04:30:55;10.35;;;5.72;;
19406;SDS011;9839;53.364;-1.204;2023-10-19T04:33:28;9.30;;;5.88;;
19406;SDS011;9839;53.364;-1.204;2023-10-19T04:35:55;10.63;;;6.60;;
19406;SDS011;9839;53.364;-1.204;2023-10-19T04:38:22;8.38;;;5.22;;
19406;SDS011;9839;53.364;-1.204;2023-10-19T04:40:48;11.77;;;5.97;;
19406;SDS011;9839;53.364;-1.204;2023-10-19T04:43:13;10.27;;;6.05;;
19406;SDS011;9839;53.364;-1.204;2023-10-19T04:45:39;9.90;;;6.05;;
19406;SDS011;9839;53.364;-1.204;2023-10-19T04:48:05;9.07;;;5.43;;
19406;SDS011;9839;53.364;-1.204;2023-10-19T04:50:31;8.55;;;5.70;;
19406;SDS011;9839;53.364;-1.204;2023-10-19T04:52:56;7.78;;;5.28;;
19406;SDS011;9839;53.364;-1.204;2023-10-19T04:55:22;7.05;;;4.40;;
19406;SDS011;9839;53.364;-1.204;2023-10-19T04:57:48;7.25;;;4.70;;
19406;SDS011;9839;53.364;-1.204;2023-10-19T05:00:14;7.35;;;4.93;;
19406;SDS011;9839;53.364;-1.204;2023-10-19T05:02:40;7.50;;;3.70;;
19406;SDS011;9839;53.364;-1.204;2023-10-19T05:05:06;4.60;;;3.08;;
19406;SDS011;9839;53.364;-1.204;2023-10-19T05:07:32;4.45;;;3.25;;
19406;SDS011;9839;53.364;-1.204;2023-10-19T05:09:59;4.10;;;2.63;;
19406;SDS011;9839;53.364;-1.204;2023-10-19T05:12:24;5.22;;;2.83;;
19406;SDS011;9839;53.364;-1.204;2023-10-19T05:14:50;3.80;;;2.70;;
19406;SDS011;9839;53.364;-1.204;2023-10-19T05:17:15;5.35;;;2.60;;
19406;SDS011;9839;53.364;-1.204;2023-10-19T05:19:41;4.70;;;2.85;;
19406;SDS011;9839;53.364;-1.204;2023-10-19T05:22:07;5.38;;;3.05;;
19406;SDS011;9839;53.364;-1.204;2023-10-19T05:24:33;7.22;;;3.13;;
19406;SDS011;9839;53.364;-1.204;2023-10-19T05:26:59;5.35;;;2.88;;
19406;SDS011;9839;53.364;-1.204;2023-10-19T05:29:25;6.60;;;2.97;;
19406;SDS011;9839;53.364;-1.204;2023-10-19T05:31:51;6.05;;;2.50;;
19406;SDS011;9839;53.364;-1.204;2023-10-19T05:34:23;4.28;;;2.20;;
19406;SDS011;9839;53.364;-1.204;2023-10-19T05:36:49;6.45;;;2.55;;
19406;SDS011;9839;53.364;-1.204;2023-10-19T05:39:15;10.35;;;2.72;;
19406;SDS011;9839;53.364;-1.204;2023-10-19T05:41:41;5.35;;;2.10;;
19406;SDS011;9839;53.364;-1.204;2023-10-19T05:44:06;10.55;;;2.20;;
19406;SDS011;9839;53.364;-1.204;2023-10-19T05:46:32;6.28;;;1.92;;
19406;SDS011;9839;53.364;-1.204;2023-10-19T05:48:57;5.55;;;1.70;;
19406;SDS011;9839;53.364;-1.204;2023-10-19T05:51:23;7.18;;;1.90;;
19406;SDS011;9839;53.364;-1.204;2023-10-19T05:53:49;4.95;;;1.80;;
19406;SDS011;9839;53.364;-1.204;2023-10-19T05:56:16;2.72;;;1.95;;
19406;SDS011;9839;53.364;-1.204;2023-10-19T05:58:45;5.63;;;2.15;;
19406;SDS011;9839;53.364;-1.204;2023-10-19T06:01:13;6.03;;;2.40;;
19406;SDS011;9839;53.364;-1.204;2023-10-19T06:03:39;3.30;;;2.38;;
19406;SDS011;9839;53.364;-1.204;2023-10-19T06:06:04;6.40;;;2.30;;
19406;SDS011;9839;53.364;-1.204;2023-10-19T06:08:30;9.48;;;2.55;;
19406;SDS011;9839;53.364;-1.204;2023-10-19T06:10:56;8.05;;;2.65;;
19406;SDS011;9839;53.364;-1.204;2023-10-19T06:13:22;10.73;;;2.85;;
19406;SDS011;9839;53.364;-1.204;2023-10-19T06:15:50;7.60;;;2.80;;
19406;SDS011;9839;53.364;-1.204;2023-10-19T06:18:16;6.65;;;3.25;;
19406;SDS011;9839;53.364;-1.204;2023-10-19T06:20:45;10.95;;;2.90;;
19406;SDS011;9839;53.364;-1.204;2023-10-19T06:23:10;7.43;;;3.03;;
19406;SDS011;9839;53.364;-1.204;2023-10-19T06:25:37;7.43;;;2.63;;
19406;SDS011;9839;53.364;-1.204;2023-10-19T06:28:03;9.60;;;2.80;;
19406;SDS011;9839;53.364;-1.204;2023-10-19T06:30:29;6.65;;;2.90;;
19406;SDS011;9839;53.364;-1.204;2023-10-19T06:32:55;12.63;;;3.10;;
19406;SDS011;9839;53.364;-1.204;2023-10-19T06:35:26;10.27;;;3.40;;
19406;SDS011;9839;53.364;-1.204;2023-10-19T06:37:52;8.75;;;2.95;;
19406;SDS011;9839;53.364;-1.204;2023-10-19T06:40:21;10.30;;;3.10;;
19406;SDS011;9839;53.364;-1.204;2023-10-19T06:42:47;12.93;;;2.92;;
19406;SDS011;9839;53.364;-1.204;2023-10-19T06:45:14;8.63;;;3.50;;
19406;SDS011;9839;53.364;-1.204;2023-10-19T06:47:41;9.00;;;3.25;;
19406;SDS011;9839;53.364;-1.204;2023-10-19T06:50:08;11.95;;;3.67;;
19406;SDS011;9839;53.364;-1.204;2023-10-19T06:52:36;10.48;;;3.20;;
19406;SDS011;9839;53.364;-1.204;2023-10-19T06:55:06;9.07;;;3.53;;
19406;SDS011;9839;53.364;-1.204;2023-10-19T06:57:39;5.97;;;2.85;;
19406;SDS011;9839;53.364;-1.204;2023-10-19T07:00:13;13.25;;;3.60;;
19406;SDS011;9839;53.364;-1.204;2023-10-19T07:02:45;11.82;;;3.47;;
19406;SDS011;9839;53.364;-1.204;2023-10-19T07:05:12;8.75;;;3.17;;
19406;SDS011;9839;53.364;-1.204;2023-10-19T07:07:40;19.80;;;3.95;;
19406;SDS011;9839;53.364;-1.204;2023-10-19T07:10:07;9.80;;;3.03;;
19406;SDS011;9839;53.364;-1.204;2023-10-19T07:12:34;8.98;;;3.08;;
19406;SDS011;9839;53.364;-1.204;2023-10-19T07:15:00;13.27;;;2.85;;
19406;SDS011;9839;53.364;-1.204;2023-10-19T07:17:26;12.05;;;3.65;;
19406;SDS011;9839;53.364;-1.204;2023-10-19T07:19:52;8.13;;;2.95;;
19406;SDS011;9839;53.364;-1.204;2023-10-19T07:22:18;13.05;;;3.75;;
19406;SDS011;9839;53.364;-1.204;2023-10-19T07:24:47;9.95;;;3.70;;
19406;SDS011;9839;53.364;-1.204;2023-10-19T07:27:16;14.18;;;4.68;;
19406;SDS011;9839;53.364;-1.204;2023-10-19T07:29:45;18.23;;;5.57;;
19406;SDS011;9839;53.364;-1.204;2023-10-19T07:32:10;15.13;;;5.22;;
19406;SDS011;9839;53.364;-1.204;2023-10-19T07:34:42;18.02;;;4.93;;
19406;SDS011;9839;53.364;-1.204;2023-10-19T07:37:10;9.73;;;4.28;;
19406;SDS011;9839;53.364;-1.204;2023-10-19T07:39:47;15.32;;;4.57;;
19406;SDS011;9839;53.364;-1.204;2023-10-19T07:42:14;14.52;;;5.47;;
19406;SDS011;9839;53.364;-1.204;2023-10-19T07:44:40;8.77;;;4.40;;
19406;SDS011;9839;53.364;-1.204;2023-10-19T07:47:05;11.07;;;4.88;;
19406;SDS011;9839;53.364;-1.204;2023-10-19T07:49:34;17.48;;;6.05;;
19406;SDS011;9839;53.364;-1.204;2023-10-19T07:52:04;19.25;;;7.80;;
19406;SDS011;9839;53.364;-1.204;2023-10-19T07:54:32;22.27;;;9.23;;
19406;SDS011;9839;53.364;-1.204;2023-10-19T07:56:58;8.70;;;4.70;;
19406;SDS011;9839;53.364;-1.204;2023-10-19T07:59:28;10.45;;;3.42;;
19406;SDS011;9839;53.364;-1.204;2023-10-19T08:01:54;8.82;;;3.78;;
19406;SDS011;9839;53.364;-1.204;2023-10-19T08:04:19;9.45;;;3.78;;
19406;SDS011;9839;53.364;-1.204;2023-10-19T08:06:45;8.98;;;3.65;;
19406;SDS011;9839;53.364;-1.204;2023-10-19T08:09:12;10.05;;;4.00;;
19406;SDS011;9839;53.364;-1.204;2023-10-19T08:11:38;8.05;;;4.45;;
19406;SDS011;9839;53.364;-1.204;2023-10-19T08:14:03;11.90;;;3.58;;
19406;SDS011;9839;53.364;-1.204;2023-10-19T08:16:30;8.65;;;3.17;;
19406;SDS011;9839;53.364;-1.204;2023-10-19T08:18:57;7.10;;;3.47;;
19406;SDS011;9839;53.364;-1.204;2023-10-19T08:21:22;9.68;;;2.92;;
19406;SDS011;9839;53.364;-1.204;2023-10-19T08:23:48;5.90;;;2.65;;
19406;SDS011;9839;53.364;-1.204;2023-10-19T08:26:13;9.68;;;2.72;;
19406;SDS011;9839;53.364;-1.204;2023-10-19T08:28:40;8.75;;;3.10;;
19406;SDS011;9839;53.364;-1.204;2023-10-19T08:31:07;6.38;;;3.42;;
19406;SDS011;9839;53.364;-1.204;2023-10-19T08:33:35;7.28;;;3.03;;
19406;SDS011;9839;53.364;-1.204;2023-10-19T08:36:04;9.88;;;3.58;;
19406;SDS011;9839;53.364;-1.204;2023-10-19T08:38:30;9.27;;;3.63;;
19406;SDS011;9839;53.364;-1.204;2023-10-19T08:40:55;13.50;;;4.15;;
19406;SDS011;9839;53.364;-1.204;2023-10-19T08:43:21;8.43;;;3.83;;
19406;SDS011;9839;53.364;-1.204;2023-10-19T08:45:46;12.68;;;4.65;;
19406;SDS011;9839;53.364;-1.204;2023-10-19T08:48:13;9.43;;;4.30;;
19406;SDS011;9839;53.364;-1.204;2023-10-19T08:50:39;11.93;;;4.10;;
19406;SDS011;9839;53.364;-1.204;2023-10-19T08:53:06;10.35;;;4.20;;
19406;SDS011;9839;53.364;-1.204;2023-10-19T08:55:33;13.30;;;4.45;;
19406;SDS011;9839;53.364;-1.204;2023-10-19T08:58:02;11.82;;;4.93;;
19406;SDS011;9839;53.364;-1.204;2023-10-19T09:00:42;20.50;;;4.57;;
19406;SDS011;9839;53.364;-1.204;2023-10-19T09:03:19;11.77;;;4.38;;
19406;SDS011;9839;53.364;-1.204;2023-10-19T09:05:46;12.82;;;4.65;;
19406;SDS011;9839;53.364;-1.204;2023-10-19T09:08:16;12.65;;;4.00;;
19406;SDS011;9839;53.364;-1.204;2023-10-19T09:10:43;8.35;;;3.92;;
19406;SDS011;9839;53.364;-1.204;2023-10-19T09:13:10;11.30;;;4.05;;
19406;SDS011;9839;53.364;-1.204;2023-10-19T09:15:37;8.25;;;3.28;;
19406;SDS011;9839;53.364;-1.204;2023-10-19T09:20:50;12.90;;;3.22;;
19406;SDS011;9839;53.364;-1.204;2023-10-19T09:23:21;11.93;;;2.92;;
19406;SDS011;9839;53.364;-1.204;2023-10-19T09:25:48;11.07;;;3.33;;
19406;SDS011;9839;53.364;-1.204;2023-10-19T09:28:14;11.73;;;3.42;;
19406;SDS011;9839;53.364;-1.204;2023-10-19T09:30:40;13.68;;;3.38;;
19406;SDS011;9839;53.364;-1.204;2023-10-19T09:33:08;12.98;;;3.38;;
19406;SDS011;9839;53.364;-1.204;2023-10-19T09:35:34;9.27;;;2.30;;
19406;SDS011;9839;53.364;-1.204;2023-10-19T09:38:02;8.90;;;2.13;;
19406;SDS011;9839;53.364;-1.204;2023-10-19T09:40:30;12.07;;;2.28;;
19406;SDS011;9839;53.364;-1.204;2023-10-19T09:42:56;8.43;;;2.25;;
19406;SDS011;9839;53.364;-1.204;2023-10-19T09:45:22;6.32;;;2.20;;
19406;SDS011;9839;53.364;-1.204;2023-10-19T09:47:50;8.18;;;2.00;;
19406;SDS011;9839;53.364;-1.204;2023-10-19T09:50:16;9.98;;;2.33;;
19406;SDS011;9839;53.364;-1.204;2023-10-19T09:52:42;11.27;;;1.88;;
19406;SDS011;9839;53.364;-1.204;2023-10-19T10:00:17;5.80;;;1.70;;
19406;SDS011;9839;53.364;-1.204;2023-10-19T10:02:48;6.95;;;1.65;;
19406;SDS011;9839;53.364;-1.204;2023-10-19T10:10:43;9.32;;;1.83;;
19406;SDS011;9839;53.364;-1.204;2023-10-19T10:15:54;10.73;;;2.42;;
19406;SDS011;9839;53.364;-1.204;2023-10-19T10:18:20;5.72;;;1.80;;
19406;SDS011;9839;53.364;-1.204;2023-10-19T10:20:46;13.77;;;2.10;;
19406;SDS011;9839;53.364;-1.204;2023-10-19T10:23:23;9.48;;;1.67;;
19406;SDS011;9839;53.364;-1.204;2023-10-19T10:25:57;4.32;;;1.25;;
19406;SDS011;9839;53.364;-1.204;2023-10-19T10:28:23;5.65;;;1.70;;
19406;SDS011;9839;53.364;-1.204;2023-10-19T10:31:08;9.23;;;1.60;;
19406;SDS011;9839;53.364;-1.204;2023-10-19T10:33:53;5.20;;;1.05;;
19406;SDS011;9839;53.364;-1.204;2023-10-19T10:36:22;10.90;;;1.48;;
19406;SDS011;9839;53.364;-1.204;2023-10-19T10:38:51;8.45;;;1.70;;
19406;SDS011;9839;53.364;-1.204;2023-10-19T10:41:24;8.65;;;1.40;;
19406;SDS011;9839;53.364;-1.204;2023-10-19T10:43:58;10.70;;;1.50;;
19406;SDS011;9839;53.364;-1.204;2023-10-19T10:46:24;7.65;;;1.63;;
19406;SDS011;9839;53.364;-1.204;2023-10-19T10:48:52;9.52;;;1.60;;
19406;SDS011;9839;53.364;-1.204;2023-10-19T10:51:25;5.25;;;1.52;;
19406;SDS011;9839;53.364;-1.204;2023-10-19T10:53:53;9.80;;;1.75;;
19406;SDS011;9839;53.364;-1.204;2023-10-19T10:56:20;7.60;;;1.67;;
19406;SDS011;9839;53.364;-1.204;2023-10-19T10:58:46;8.43;;;1.55;;
19406;SDS011;9839;53.364;-1.204;2023-10-19T11:01:12;15.30;;;2.28;;
19406;SDS011;9839;53.364;-1.204;2023-10-19T11:03:39;8.65;;;1.77;;
19406;SDS011;9839;53.364;-1.204;2023-10-19T11:06:08;4.32;;;1.33;;
19406;SDS011;9839;53.364;-1.204;2023-10-19T11:08:37;5.55;;;1.00;;
19406;SDS011;9839;53.364;-1.204;2023-10-19T11:11:07;8.02;;;1.73;;
19406;SDS011;9839;53.364;-1.204;2023-10-19T11:13:36;9.80;;;1.30;;
19406;SDS011;9839;53.364;-1.204;2023-10-19T11:16:04;9.07;;;1.75;;
19406;SDS011;9839;53.364;-1.204;2023-10-19T11:18:35;5.25;;;1.58;;
19406;SDS011;9839;53.364;-1.204;2023-10-19T11:21:11;9.30;;;1.38;;
19406;SDS011;9839;53.364;-1.204;2023-10-19T11:26:08;11.02;;;1.65;;
19406;SDS011;9839;53.364;-1.204;2023-10-19T11:28:35;8.00;;;1.75;;
19406;SDS011;9839;53.364;-1.204;2023-10-19T11:31:14;6.50;;;1.10;;
19406;SDS011;9839;53.364;-1.204;2023-10-19T11:33:44;4.15;;;0.93;;
19406;SDS011;9839;53.364;-1.204;2023-10-19T11:36:11;10.82;;;1.40;;
19406;SDS011;9839;53.364;-1.204;2023-10-19T11:38:47;3.22;;;1.40;;
19406;SDS011;9839;53.364;-1.204;2023-10-19T11:41:13;7.40;;;1.20;;
19406;SDS011;9839;53.364;-1.204;2023-10-19T11:43:40;4.88;;;1.02;;
19406;SDS011;9839;53.364;-1.204;2023-10-19T11:46:07;7.97;;;1.30;;
19406;SDS011;9839;53.364;-1.204;2023-10-19T11:48:34;6.90;;;1.05;;
19406;SDS011;9839;53.364;-1.204;2023-10-19T11:51:01;4.30;;;0.82;;
19406;SDS011;9839;53.364;-1.204;2023-10-19T11:53:30;5.43;;;1.10;;
19406;SDS011;9839;53.364;-1.204;2023-10-19T11:56:03;6.40;;;1.30;;
19406;SDS011;9839;53.364;-1.204;2023-10-19T11:58:33;5.22;;;1.13;;
19406;SDS011;9839;53.364;-1.204;2023-10-19T12:01:03;6.70;;;1.15;;
19406;SDS011;9839;53.364;-1.204;2023-10-19T12:03:39;5.05;;;1.85;;
19406;SDS011;9839;53.364;-1.204;2023-10-19T12:06:06;5.53;;;1.27;;
19406;SDS011;9839;53.364;-1.204;2023-10-19T12:08:32;11.25;;;1.50;;
19406;SDS011;9839;53.364;-1.204;2023-10-19T12:10:59;7.57;;;1.35;;
19406;SDS011;9839;53.364;-1.204;2023-10-19T12:13:27;7.85;;;1.92;;
19406;SDS011;9839;53.364;-1.204;2023-10-19T12:15:53;6.50;;;1.38;;
19406;SDS011;9839;53.364;-1.204;2023-10-19T12:18:20;10.40;;;2.00;;
19406;SDS011;9839;53.364;-1.204;2023-10-19T12:20:46;6.88;;;1.20;;
19406;SDS011;9839;53.364;-1.204;2023-10-19T12:23:12;7.25;;;1.20;;
19406;SDS011;9839;53.364;-1.204;2023-10-19T12:25:38;9.77;;;1.67;;
19406;SDS011;9839;53.364;-1.204;2023-10-19T12:28:04;6.32;;;1.45;;
19406;SDS011;9839;53.364;-1.204;2023-10-19T12:30:30;8.23;;;1.58;;
19406;SDS011;9839;53.364;-1.204;2023-10-19T12:33:04;6.20;;;1.50;;
19406;SDS011;9839;53.364;-1.204;2023-10-19T12:35:45;9.85;;;1.20;;
19406;SDS011;9839;53.364;-1.204;2023-10-19T12:38:14;10.82;;;1.48;;
19406;SDS011;9839;53.364;-1.204;2023-10-19T12:40:44;6.45;;;1.52;;
19406;SDS011;9839;53.364;-1.204;2023-10-19T12:43:11;8.27;;;1.30;;
19406;SDS011;9839;53.364;-1.204;2023-10-19T12:45:37;8.82;;;2.20;;
19406;SDS011;9839;53.364;-1.204;2023-10-19T12:48:03;8.80;;;1.42;;
19406;SDS011;9839;53.364;-1.204;2023-10-19T12:50:29;9.02;;;1.50;;
19406;SDS011;9839;53.364;-1.204;2023-10-19T12:52:56;5.68;;;1.58;;
19406;SDS011;9839;53.364;-1.204;2023-10-19T12:55:21;8.60;;;1.50;;
19406;SDS011;9839;53.364;-1.204;2023-10-19T12:57:47;8.20;;;2.20;;
19406;SDS011;9839;53.364;-1.204;2023-10-19T13:00:13;10.32;;;1.92;;
19406;SDS011;9839;53.364;-1.204;2023-10-19T13:03:04;10.32;;;1.95;;
19406;SDS011;9839;53.364;-1.204;2023-10-19T13:05:36;11.60;;;1.75;;
19406;SDS011;9839;53.364;-1.204;2023-10-19T13:08:02;9.20;;;1.50;;
19406;SDS011;9839;53.364;-1.204;2023-10-19T13:10:30;8.32;;;2.15;;
19406;SDS011;9839;53.364;-1.204;2023-10-19T13:12:58;11.32;;;1.90;;
19406;SDS011;9839;53.364;-1.204;2023-10-19T13:15:25;6.28;;;1.40;;
19406;SDS011;9839;53.364;-1.204;2023-10-19T13:17:56;10.32;;;2.15;;
19406;SDS011;9839;53.364;-1.204;2023-10-19T13:20:23;10.07;;;1.98;;
19406;SDS011;9839;53.364;-1.204;2023-10-19T13:22:50;9.65;;;2.05;;
19406;SDS011;9839;53.364;-1.204;2023-10-19T13:25:16;13.27;;;2.22;;
19406;SDS011;9839;53.364;-1.204;2023-10-19T13:27:45;11.63;;;2.45;;
19406;SDS011;9839;53.364;-1.204;2023-10-19T13:30:13;12.70;;;1.88;;
19406;SDS011;9839;53.364;-1.204;2023-10-19T13:32:39;7.53;;;1.65;;
19406;SDS011;9839;53.364;-1.204;2023-10-19T13:35:07;6.45;;;1.70;;
19406;SDS011;9839;53.364;-1.204;2023-10-19T13:37:33;8.30;;;1.90;;
19406;SDS011;9839;53.364;-1.204;2023-10-19T13:39:58;11.32;;;2.40;;
19406;SDS011;9839;53.364;-1.204;2023-10-19T13:42:24;12.05;;;1.88;;
19406;SDS011;9839;53.364;-1.204;2023-10-19T13:44:50;10.35;;;2.25;;
19406;SDS011;9839;53.364;-1.204;2023-10-19T13:47:16;5.57;;;1.70;;
19406;SDS011;9839;53.364;-1.204;2023-10-19T13:49:41;10.32;;;1.88;;
19406;SDS011;9839;53.364;-1.204;2023-10-19T13:52:07;12.05;;;1.90;;
19406;SDS011;9839;53.364;-1.204;2023-10-19T13:54:36;7.78;;;2.10;;
19406;SDS011;9839;53.364;-1.204;2023-10-19T13:57:02;13.70;;;2.05;;
19406;SDS011;9839;53.364;-1.204;2023-10-19T13:59:28;15.32;;;2.88;;
19406;SDS011;9839;53.364;-1.204;2023-10-19T14:01:54;11.68;;;2.67;;
19406;SDS011;9839;53.364;-1.204;2023-10-19T14:04:20;8.52;;;1.70;;
19406;SDS011;9839;53.364;-1.204;2023-10-19T14:06:45;15.05;;;3.40;;
19406;SDS011;9839;53.364;-1.204;2023-10-19T14:09:14;11.57;;;2.58;;
19406;SDS011;9839;53.364;-1.204;2023-10-19T14:11:40;18.25;;;2.47;;
19406;SDS011;9839;53.364;-1.204;2023-10-19T14:14:06;11.95;;;2.22;;
19406;SDS011;9839;53.364;-1.204;2023-10-19T14:16:32;7.07;;;2.15;;
19406;SDS011;9839;53.364;-1.204;2023-10-19T14:18:58;8.85;;;2.63;;
19406;SDS011;9839;53.364;-1.204;2023-10-19T14:21:23;9.65;;;2.03;;
19406;SDS011;9839;53.364;-1.204;2023-10-19T14:23:52;14.80;;;2.58;;
19406;SDS011;9839;53.364;-1.204;2023-10-19T14:26:19;15.13;;;2.63;;
19406;SDS011;9839;53.364;-1.204;2023-10-19T14:28:44;13.15;;;3.38;;
19406;SDS011;9839;53.364;-1.204;2023-10-19T14:31:10;12.32;;;3.22;;
19406;SDS011;9839;53.364;-1.204;2023-10-19T14:33:37;11.77;;;2.47;;
19406;SDS011;9839;53.364;-1.204;2023-10-19T14:36:03;10.32;;;3.58;;
19406;SDS011;9839;53.364;-1.204;2023-10-19T14:38:29;11.43;;;2.63;;
19406;SDS011;9839;53.364;-1.204;2023-10-19T14:40:55;14.60;;;2.42;;
19406;SDS011;9839;53.364;-1.204;2023-10-19T14:43:20;11.20;;;2.38;;
19406;SDS011;9839;53.364;-1.204;2023-10-19T14:45:46;13.48;;;2.95;;
19406;SDS011;9839;53.364;-1.204;2023-10-19T14:48:12;14.23;;;2.75;;
19406;SDS011;9839;53.364;-1.204;2023-10-19T14:50:39;11.88;;;2.50;;
19406;SDS011;9839;53.364;-1.204;2023-10-19T14:53:07;12.90;;;3.10;;
19406;SDS011;9839;53.364;-1.204;2023-10-19T14:55:32;11.93;;;2.40;;
19406;SDS011;9839;53.364;-1.204;2023-10-19T14:57:58;9.90;;;2.38;;
19406;SDS011;9839;53.364;-1.204;2023-10-19T15:00:24;11.30;;;2.95;;
19406;SDS011;9839;53.364;-1.204;2023-10-19T15:02:52;13.40;;;2.85;;
19406;SDS011;9839;53.364;-1.204;2023-10-19T15:05:26;9.70;;;2.33;;
19406;SDS011;9839;53.364;-1.204;2023-10-19T15:07:53;9.73;;;2.50;;
19406;SDS011;9839;53.364;-1.204;2023-10-19T15:10:23;9.57;;;2.55;;
19406;SDS011;9839;53.364;-1.204;2023-10-19T15:12:53;18.60;;;2.80;;